PWSweather.com
Personal Weather Stations
Station Observations
SHAHALMS1
Eftra, Falkenberg, HA

EftraFalkenberg, HA

Lat: 56.85, Lon: 12.65

Elevation: 140

Station Type:

http://hem.passagen.se/risarp101

High Low Average
Temperature 46.0°F7.8°C 40.6°F4.8°C 44.1°F6.7°C
Dew Point 44.7°F7.1°C 37.4°F3.0°C 42.5°F5.8°C
Winds 17.6 mph 28.3 kmh 4.4 mph 7.1 kmh 10.0 mph WSW16.1 kmh WSW
Wind Gusts 37.2 mph59.9 kmh 9.3 mph15.0 kmh 20.0 mph32.2 kmh
Humidity 96% 88% 94%
Pressure 30.39 in1029.1 mb 30.24 in1024.0 mb -
Precipitation 0.00 in0.0 mm - -
Hour Temp Dew Point Humidity Winds Wind Gusts Pressure Precip Precip Rate Daily Precip Total
12:00 AM 40.6°F4.8°C 37.4°F3.0°C 88% 7.7 mph W12.4 kmh W 12.9 mph20.8 kmh 30.33 in1027.1 mb 0.00 in0.0 mm 0.00 in0.0 mm 0.00 in0.0 mm
12:15 AM 41.0°F5.0°C 38.0°F3.3°C 89% 6.3 mph W10.1 kmh W 14.0 mph22.5 kmh 30.33 in1027.1 mb 0.00 in0.0 mm 0.00 in0.0 mm 0.00 in0.0 mm
12:30 AM 42.1°F5.6°C 39.4°F4.1°C 90% 8.3 mph WSW13.4 kmh WSW 15.7 mph25.3 kmh 30.33 in1027.1 mb 0.00 in0.0 mm 0.00 in0.0 mm 0.00 in0.0 mm
12:45 AM 42.3°F5.7°C 39.5°F4.2°C 90% 8.7 mph WSW14.0 kmh WSW 14.3 mph23.0 kmh 30.30 in1026.1 mb 0.00 in0.0 mm 0.00 in0.0 mm 0.00 in0.0 mm
01:00 AM 42.1°F5.6°C 39.1°F3.9°C 89% 8.9 mph WSW14.3 kmh WSW 16.8 mph27.0 kmh 30.30 in1026.1 mb 0.00 in0.0 mm 0.00 in0.0 mm 0.00 in0.0 mm
01:15 AM 41.9°F5.5°C 38.9°F3.8°C 89% 8.3 mph WSW13.4 kmh WSW 13.6 mph21.9 kmh 30.30 in1026.1 mb 0.00 in0.0 mm 0.00 in0.0 mm 0.00 in0.0 mm
01:30 AM 41.9°F5.5°C 38.6°F3.7°C 88% 9.0 mph WSW14.5 kmh WSW 16.8 mph27.0 kmh 30.30 in1026.1 mb 0.00 in0.0 mm 0.00 in0.0 mm 0.00 in0.0 mm
01:45 AM 42.1°F5.6°C 39.1°F3.9°C 89% 8.0 mph W12.9 kmh W 15.4 mph24.8 kmh 30.27 in1025.1 mb 0.00 in0.0 mm 0.00 in0.0 mm 0.00 in0.0 mm
02:00 AM 42.1°F5.6°C 39.1°F3.9°C 89% 9.0 mph W14.5 kmh W 14.0 mph22.5 kmh 30.27 in1025.1 mb 0.00 in0.0 mm 0.00 in0.0 mm 0.00 in0.0 mm
02:15 AM 42.3°F5.7°C 39.5°F4.2°C 90% 9.2 mph W14.8 kmh W 16.1 mph25.9 kmh 30.30 in1026.1 mb 0.00 in0.0 mm 0.00 in0.0 mm 0.00 in0.0 mm
02:30 AM 42.4°F5.8°C 39.7°F4.3°C 90% 9.2 mph W14.8 kmh W 17.2 mph27.7 kmh 30.27 in1025.1 mb 0.00 in0.0 mm 0.00 in0.0 mm 0.00 in0.0 mm
02:45 AM 42.4°F5.8°C 40.0°F4.4°C 91% 8.6 mph W13.8 kmh W 16.5 mph26.6 kmh 30.30 in1026.1 mb 0.00 in0.0 mm 0.00 in0.0 mm 0.00 in0.0 mm
03:00 AM 42.4°F5.8°C 40.0°F4.4°C 91% 8.1 mph W13.0 kmh W 14.0 mph22.5 kmh 30.30 in1026.1 mb 0.00 in0.0 mm 0.00 in0.0 mm 0.00 in0.0 mm
03:15 AM 42.4°F5.8°C 40.3°F4.6°C 92% 7.7 mph W12.4 kmh W 12.2 mph19.6 kmh 30.30 in1026.1 mb 0.00 in0.0 mm 0.00 in0.0 mm 0.00 in0.0 mm
03:30 AM 42.4°F5.8°C 40.6°F4.8°C 93% 8.8 mph WSW14.2 kmh WSW 17.2 mph27.7 kmh 30.30 in1026.1 mb 0.00 in0.0 mm 0.00 in0.0 mm 0.00 in0.0 mm
03:45 AM 42.4°F5.8°C 40.6°F4.8°C 93% 10.0 mph WSW16.1 kmh WSW 19.7 mph31.7 kmh 30.27 in1025.1 mb 0.00 in0.0 mm 0.00 in0.0 mm 0.00 in0.0 mm
04:00 AM 42.4°F5.8°C 40.8°F4.9°C 94% 9.3 mph SW15.0 kmh SW 20.0 mph32.2 kmh 30.27 in1025.1 mb 0.00 in0.0 mm 0.00 in0.0 mm 0.00 in0.0 mm
04:15 AM 42.4°F5.8°C 40.8°F4.9°C 94% 9.4 mph WSW15.1 kmh WSW 20.0 mph32.2 kmh 30.27 in1025.1 mb 0.00 in0.0 mm 0.00 in0.0 mm 0.00 in0.0 mm
04:30 AM 42.4°F5.8°C 40.8°F4.9°C 94% 10.2 mph SW16.4 kmh SW 17.5 mph28.2 kmh 30.27 in1025.1 mb 0.00 in0.0 mm 0.00 in0.0 mm 0.00 in0.0 mm
04:45 AM 42.4°F5.8°C 40.8°F4.9°C 94% 9.7 mph SW15.6 kmh SW 19.7 mph31.7 kmh 30.27 in1025.1 mb 0.00 in0.0 mm 0.00 in0.0 mm 0.00 in0.0 mm
05:00 AM 42.6°F5.9°C 41.3°F5.2°C 95% 9.3 mph SSW15.0 kmh SSW 20.8 mph33.5 kmh 30.27 in1025.1 mb 0.00 in0.0 mm 0.00 in0.0 mm 0.00 in0.0 mm
05:15 AM 42.8°F6.0°C 41.5°F5.3°C 95% 9.1 mph SW14.6 kmh SW 15.4 mph24.8 kmh 30.27 in1025.1 mb 0.00 in0.0 mm 0.00 in0.0 mm 0.00 in0.0 mm
05:30 AM 42.6°F5.9°C 41.3°F5.2°C 95% 9.9 mph S15.9 kmh S 21.1 mph34.0 kmh 30.27 in1025.1 mb 0.00 in0.0 mm 0.00 in0.0 mm 0.00 in0.0 mm
05:45 AM 42.6°F5.9°C 41.3°F5.2°C 95% 10.5 mph SSW16.9 kmh SSW 21.1 mph34.0 kmh 30.27 in1025.1 mb 0.00 in0.0 mm 0.00 in0.0 mm 0.00 in0.0 mm
06:00 AM 42.8°F6.0°C 41.5°F5.3°C 95% 10.2 mph SW16.4 kmh SW 22.2 mph35.7 kmh 30.27 in1025.1 mb 0.00 in0.0 mm 0.00 in0.0 mm 0.00 in0.0 mm
06:15 AM 42.6°F5.9°C 41.3°F5.2°C 95% 12.1 mph S19.5 kmh S 24.7 mph39.8 kmh 30.27 in1025.1 mb 0.00 in0.0 mm 0.00 in0.0 mm 0.00 in0.0 mm
06:30 AM 42.6°F5.9°C 41.3°F5.2°C 95% 10.1 mph SSW16.3 kmh SSW 22.9 mph36.9 kmh 30.27 in1025.1 mb 0.00 in0.0 mm 0.00 in0.0 mm 0.00 in0.0 mm
06:45 AM 42.6°F5.9°C 41.3°F5.2°C 95% 11.6 mph SSW18.7 kmh SSW 23.3 mph37.5 kmh 30.27 in1025.1 mb 0.00 in0.0 mm 0.00 in0.0 mm 0.00 in0.0 mm
07:00 AM 42.8°F6.0°C 41.5°F5.3°C 95% 11.9 mph WSW19.2 kmh WSW 24.3 mph39.1 kmh 30.27 in1025.1 mb 0.00 in0.0 mm 0.00 in0.0 mm 0.00 in0.0 mm
07:15 AM 43.0°F6.1°C 41.9°F5.5°C 96% 13.8 mph WSW22.2 kmh WSW 30.8 mph49.6 kmh 30.27 in1025.1 mb 0.00 in0.0 mm 0.00 in0.0 mm 0.00 in0.0 mm
07:30 AM 43.2°F6.2°C 42.1°F5.6°C 96% 14.6 mph SW23.5 kmh SW 27.9 mph44.9 kmh 30.27 in1025.1 mb 0.00 in0.0 mm 0.00 in0.0 mm 0.00 in0.0 mm
07:45 AM 43.2°F6.2°C 42.1°F5.6°C 96% 13.7 mph SW22.0 kmh SW 25.8 mph41.5 kmh 30.27 in1025.1 mb 0.00 in0.0 mm 0.00 in0.0 mm 0.00 in0.0 mm
08:00 AM 43.3°F6.3°C 42.3°F5.7°C 96% 14.0 mph WSW22.5 kmh WSW 27.9 mph44.9 kmh 30.27 in1025.1 mb 0.00 in0.0 mm 0.00 in0.0 mm 0.00 in0.0 mm
08:15 AM 43.5°F6.4°C 42.5°F5.8°C 96% 15.0 mph WSW24.1 kmh WSW 31.9 mph51.3 kmh 30.27 in1025.1 mb 0.00 in0.0 mm 0.00 in0.0 mm 0.00 in0.0 mm
08:30 AM 43.5°F6.4°C 42.5°F5.8°C 96% 15.2 mph WSW24.5 kmh WSW 31.1 mph50.1 kmh 30.27 in1025.1 mb 0.00 in0.0 mm 0.00 in0.0 mm 0.00 in0.0 mm
08:45 AM 43.9°F6.6°C 42.8°F6.0°C 96% 16.2 mph SW26.1 kmh SW 30.4 mph48.9 kmh 30.24 in1024.0 mb 0.00 in0.0 mm 0.00 in0.0 mm 0.00 in0.0 mm
09:00 AM 44.1°F6.7°C 43.0°F6.1°C 96% 14.6 mph W23.5 kmh W 30.8 mph49.6 kmh 30.27 in1025.1 mb 0.00 in0.0 mm 0.00 in0.0 mm 0.00 in0.0 mm
09:15 AM 44.4°F6.9°C 43.4°F6.3°C 96% 16.3 mph W26.2 kmh W 29.0 mph46.7 kmh 30.27 in1025.1 mb 0.00 in0.0 mm 0.00 in0.0 mm 0.00 in0.0 mm
09:30 AM 44.2°F6.8°C 43.2°F6.2°C 96% 15.2 mph W24.5 kmh W 27.2 mph43.8 kmh 30.27 in1025.1 mb 0.00 in0.0 mm 0.00 in0.0 mm 0.00 in0.0 mm
09:45 AM 44.2°F6.8°C 43.2°F6.2°C 96% 14.8 mph W23.8 kmh W 24.7 mph39.8 kmh 30.27 in1025.1 mb 0.00 in0.0 mm 0.00 in0.0 mm 0.00 in0.0 mm
10:00 AM 44.4°F6.9°C 43.4°F6.3°C 96% 14.3 mph W23.0 kmh W 29.7 mph47.8 kmh 30.27 in1025.1 mb 0.00 in0.0 mm 0.00 in0.0 mm 0.00 in0.0 mm
10:15 AM 44.6°F7.0°C 43.5°F6.4°C 96% 16.0 mph WSW25.7 kmh WSW 37.2 mph59.9 kmh 30.27 in1025.1 mb 0.00 in0.0 mm 0.00 in0.0 mm 0.00 in0.0 mm
10:30 AM 44.8°F7.1°C 43.7°F6.5°C 96% 17.6 mph W28.3 kmh W 31.5 mph50.7 kmh 30.27 in1025.1 mb 0.00 in0.0 mm 0.00 in0.0 mm 0.00 in0.0 mm
10:45 AM 45.0°F7.2°C 43.9°F6.6°C 96% 16.2 mph W26.1 kmh W 27.6 mph44.4 kmh 30.27 in1025.1 mb 0.00 in0.0 mm 0.00 in0.0 mm 0.00 in0.0 mm
11:00 AM 45.1°F7.3°C 44.1°F6.7°C 96% 17.0 mph WSW27.4 kmh WSW 31.5 mph50.7 kmh 30.27 in1025.1 mb 0.00 in0.0 mm 0.00 in0.0 mm 0.00 in0.0 mm
11:15 AM 45.1°F7.3°C 44.1°F6.7°C 96% 15.0 mph W24.1 kmh W 27.2 mph43.8 kmh 30.27 in1025.1 mb 0.00 in0.0 mm 0.00 in0.0 mm 0.00 in0.0 mm
11:30 AM 45.0°F7.2°C 43.9°F6.6°C 96% 12.6 mph W20.3 kmh W 23.3 mph37.5 kmh 30.30 in1026.1 mb 0.00 in0.0 mm 0.00 in0.0 mm 0.00 in0.0 mm
11:45 AM 45.1°F7.3°C 44.1°F6.7°C 96% 15.4 mph SW24.8 kmh SW 31.1 mph50.1 kmh 30.30 in1026.1 mb 0.00 in0.0 mm 0.00 in0.0 mm 0.00 in0.0 mm
12:00 PM 45.0°F7.2°C 43.6°F6.4°C 95% 14.4 mph W23.2 kmh W 27.6 mph44.4 kmh 30.30 in1026.1 mb 0.00 in0.0 mm 0.00 in0.0 mm 0.00 in0.0 mm
12:15 PM 44.8°F7.1°C 43.4°F6.3°C 95% 14.7 mph WSW23.7 kmh WSW 27.6 mph44.4 kmh 30.27 in1025.1 mb 0.00 in0.0 mm 0.00 in0.0 mm 0.00 in0.0 mm
12:30 PM 44.6°F7.0°C 43.3°F6.3°C 95% 14.1 mph SW22.7 kmh SW 23.6 mph38.0 kmh 30.30 in1026.1 mb 0.00 in0.0 mm 0.00 in0.0 mm 0.00 in0.0 mm
12:45 PM 45.0°F7.2°C 43.6°F6.4°C 95% 13.7 mph SW22.0 kmh SW 31.9 mph51.3 kmh 30.30 in1026.1 mb 0.00 in0.0 mm 0.00 in0.0 mm 0.00 in0.0 mm
01:00 PM 45.3°F7.4°C 44.0°F6.7°C 95% 14.7 mph WSW23.7 kmh WSW 27.2 mph43.8 kmh 30.30 in1026.1 mb 0.00 in0.0 mm 0.00 in0.0 mm 0.00 in0.0 mm
01:15 PM 45.5°F7.5°C 44.2°F6.8°C 95% 12.4 mph SW20.0 kmh SW 21.1 mph34.0 kmh 30.27 in1025.1 mb 0.00 in0.0 mm 0.00 in0.0 mm 0.00 in0.0 mm
01:30 PM 45.3°F7.4°C 44.0°F6.7°C 95% 9.6 mph S15.4 kmh S 14.0 mph22.5 kmh 30.27 in1025.1 mb 0.00 in0.0 mm 0.00 in0.0 mm 0.00 in0.0 mm
01:45 PM 45.3°F7.4°C 44.0°F6.7°C 95% 11.6 mph SSW18.7 kmh SSW 22.5 mph36.2 kmh 30.27 in1025.1 mb 0.00 in0.0 mm 0.00 in0.0 mm 0.00 in0.0 mm
02:00 PM 45.1°F7.3°C 43.8°F6.6°C 95% 14.1 mph WSW22.7 kmh WSW 26.8 mph43.1 kmh 30.30 in1026.1 mb 0.00 in0.0 mm 0.00 in0.0 mm 0.00 in0.0 mm
02:15 PM 45.1°F7.3°C 43.8°F6.6°C 95% 12.6 mph WSW20.3 kmh WSW 26.5 mph42.6 kmh 30.30 in1026.1 mb 0.00 in0.0 mm 0.00 in0.0 mm 0.00 in0.0 mm
02:30 PM 44.6°F7.0°C 43.0°F6.1°C 94% 13.3 mph WSW21.4 kmh WSW 27.9 mph44.9 kmh 30.30 in1026.1 mb 0.00 in0.0 mm 0.00 in0.0 mm 0.00 in0.0 mm
02:45 PM 44.2°F6.8°C 42.6°F5.9°C 94% 12.4 mph SW20.0 kmh SW 20.8 mph33.5 kmh 30.30 in1026.1 mb 0.00 in0.0 mm 0.00 in0.0 mm 0.00 in0.0 mm
03:00 PM 44.2°F6.8°C 42.9°F6.1°C 95% 10.0 mph SW16.1 kmh SW 17.9 mph28.8 kmh 30.30 in1026.1 mb 0.00 in0.0 mm 0.00 in0.0 mm 0.00 in0.0 mm
03:15 PM 44.2°F6.8°C 42.9°F6.1°C 95% 10.0 mph SW16.1 kmh SW 20.0 mph32.2 kmh 30.30 in1026.1 mb 0.00 in0.0 mm 0.00 in0.0 mm 0.00 in0.0 mm
03:30 PM 44.8°F7.1°C 43.4°F6.3°C 95% 9.9 mph SW15.9 kmh SW 19.3 mph31.1 kmh 30.27 in1025.1 mb 0.00 in0.0 mm 0.00 in0.0 mm 0.00 in0.0 mm
03:45 PM 45.3°F7.4°C 44.0°F6.7°C 95% 9.7 mph SW15.6 kmh SW 16.8 mph27.0 kmh 30.27 in1025.1 mb 0.00 in0.0 mm 0.00 in0.0 mm 0.00 in0.0 mm
04:00 PM 45.5°F7.5°C 44.2°F6.8°C 95% 9.2 mph WSW14.8 kmh WSW 20.0 mph32.2 kmh 30.27 in1025.1 mb 0.00 in0.0 mm 0.00 in0.0 mm 0.00 in0.0 mm
04:15 PM 45.1°F7.3°C 43.8°F6.6°C 95% 9.2 mph WSW14.8 kmh WSW 16.8 mph27.0 kmh 30.30 in1026.1 mb 0.00 in0.0 mm 0.00 in0.0 mm 0.00 in0.0 mm
04:30 PM 45.0°F7.2°C 43.3°F6.3°C 94% 10.2 mph WSW16.4 kmh WSW 21.5 mph34.6 kmh 30.30 in1026.1 mb 0.00 in0.0 mm 0.00 in0.0 mm 0.00 in0.0 mm
04:45 PM 45.7°F7.6°C 44.3°F6.8°C 95% 8.5 mph WSW13.7 kmh WSW 16.8 mph27.0 kmh 30.30 in1026.1 mb 0.00 in0.0 mm 0.00 in0.0 mm 0.00 in0.0 mm
05:00 PM 45.9°F7.7°C 44.5°F6.9°C 95% 9.0 mph WSW14.5 kmh WSW 15.7 mph25.3 kmh 30.30 in1026.1 mb 0.00 in0.0 mm 0.00 in0.0 mm 0.00 in0.0 mm
05:15 PM 46.0°F7.8°C 44.7°F7.1°C 95% 8.2 mph SSW13.2 kmh SSW 14.0 mph22.5 kmh 30.27 in1025.1 mb 0.00 in0.0 mm 0.00 in0.0 mm 0.00 in0.0 mm
05:30 PM 45.7°F7.6°C 44.1°F6.7°C 94% 8.0 mph SSW12.9 kmh SSW 14.3 mph23.0 kmh 30.27 in1025.1 mb 0.00 in0.0 mm 0.00 in0.0 mm 0.00 in0.0 mm
05:45 PM 45.1°F7.3°C 43.5°F6.4°C 94% 7.2 mph SSW11.6 kmh SSW 12.9 mph20.8 kmh 30.30 in1026.1 mb 0.00 in0.0 mm 0.00 in0.0 mm 0.00 in0.0 mm
06:00 PM 45.0°F7.2°C 43.3°F6.3°C 94% 8.9 mph SSW14.3 kmh SSW 17.5 mph28.2 kmh 30.27 in1025.1 mb 0.00 in0.0 mm 0.00 in0.0 mm 0.00 in0.0 mm
06:15 PM 45.3°F7.4°C 43.7°F6.5°C 94% 8.8 mph W14.2 kmh W 15.4 mph24.8 kmh 30.30 in1026.1 mb 0.00 in0.0 mm 0.00 in0.0 mm 0.00 in0.0 mm
06:30 PM 45.5°F7.5°C 43.9°F6.6°C 94% 9.1 mph WSW14.6 kmh WSW 16.1 mph25.9 kmh 30.30 in1026.1 mb 0.00 in0.0 mm 0.00 in0.0 mm 0.00 in0.0 mm
06:45 PM 45.7°F7.6°C 44.1°F6.7°C 94% 8.6 mph WSW13.8 kmh WSW 19.7 mph31.7 kmh 30.27 in1025.1 mb 0.00 in0.0 mm 0.00 in0.0 mm 0.00 in0.0 mm
07:00 PM 45.7°F7.6°C 44.1°F6.7°C 94% 7.7 mph W12.4 kmh W 14.3 mph23.0 kmh 30.27 in1025.1 mb 0.00 in0.0 mm 0.00 in0.0 mm 0.00 in0.0 mm
07:15 PM 45.5°F7.5°C 43.9°F6.6°C 94% 8.5 mph WSW13.7 kmh WSW 15.0 mph24.1 kmh 30.30 in1026.1 mb 0.00 in0.0 mm 0.00 in0.0 mm 0.00 in0.0 mm
07:30 PM 45.5°F7.5°C 43.9°F6.6°C 94% 6.9 mph W11.1 kmh W 12.5 mph20.1 kmh 30.30 in1026.1 mb 0.00 in0.0 mm 0.00 in0.0 mm 0.00 in0.0 mm
07:45 PM 45.3°F7.4°C 43.7°F6.5°C 94% 6.5 mph W10.5 kmh W 11.5 mph18.5 kmh 30.30 in1026.1 mb 0.00 in0.0 mm 0.00 in0.0 mm 0.00 in0.0 mm
08:00 PM 45.5°F7.5°C 43.9°F6.6°C 94% 4.7 mph W7.6 kmh W 12.5 mph20.1 kmh 30.33 in1027.1 mb 0.00 in0.0 mm 0.00 in0.0 mm 0.00 in0.0 mm
08:15 PM 45.7°F7.6°C 44.1°F6.7°C 94% 5.9 mph W9.5 kmh W 14.0 mph22.5 kmh 30.30 in1026.1 mb 0.00 in0.0 mm 0.00 in0.0 mm 0.00 in0.0 mm
08:30 PM 45.5°F7.5°C 43.9°F6.6°C 94% 4.4 mph W7.1 kmh W 9.3 mph15.0 kmh 30.36 in1028.1 mb 0.00 in0.0 mm 0.00 in0.0 mm 0.00 in0.0 mm
08:45 PM 45.5°F7.5°C 43.9°F6.6°C 94% 5.1 mph W8.2 kmh W 13.6 mph21.9 kmh 30.36 in1028.1 mb 0.00 in0.0 mm 0.00 in0.0 mm 0.00 in0.0 mm
09:00 PM 45.7°F7.6°C 44.1°F6.7°C 94% 5.3 mph W8.5 kmh W 12.5 mph20.1 kmh 30.36 in1028.1 mb 0.00 in0.0 mm 0.00 in0.0 mm 0.00 in0.0 mm
09:15 PM 46.0°F7.8°C 44.7°F7.1°C 95% 6.6 mph W10.6 kmh W 14.0 mph22.5 kmh 30.36 in1028.1 mb 0.00 in0.0 mm 0.00 in0.0 mm 0.00 in0.0 mm
09:30 PM 45.9°F7.7°C 44.5°F6.9°C 95% 7.0 mph W11.3 kmh W 13.6 mph21.9 kmh 30.36 in1028.1 mb 0.00 in0.0 mm 0.00 in0.0 mm 0.00 in0.0 mm
09:45 PM 45.7°F7.6°C 44.3°F6.8°C 95% 6.1 mph WNW9.8 kmh WNW 12.9 mph20.8 kmh 30.36 in1028.1 mb 0.00 in0.0 mm 0.00 in0.0 mm 0.00 in0.0 mm
10:00 PM 45.5°F7.5°C 44.2°F6.8°C 95% 7.3 mph NW11.7 kmh NW 18.3 mph29.5 kmh 30.33 in1027.1 mb 0.00 in0.0 mm 0.00 in0.0 mm 0.00 in0.0 mm
10:15 PM 45.1°F7.3°C 43.8°F6.6°C 95% 8.7 mph NW14.0 kmh NW 20.0 mph32.2 kmh 30.39 in1029.1 mb 0.00 in0.0 mm 0.00 in0.0 mm 0.00 in0.0 mm
10:30 PM 45.0°F7.2°C 43.6°F6.4°C 95% 8.9 mph NW14.3 kmh NW 16.8 mph27.0 kmh 30.39 in1029.1 mb 0.00 in0.0 mm 0.00 in0.0 mm 0.00 in0.0 mm
10:45 PM 44.8°F7.1°C 43.4°F6.3°C 95% 7.6 mph NW12.2 kmh NW 14.0 mph22.5 kmh 30.39 in1029.1 mb 0.00 in0.0 mm 0.00 in0.0 mm 0.00 in0.0 mm
11:00 PM 44.8°F7.1°C 43.4°F6.3°C 95% 8.4 mph NW13.5 kmh NW 16.1 mph25.9 kmh 30.36 in1028.1 mb 0.00 in0.0 mm 0.00 in0.0 mm 0.00 in0.0 mm
11:15 PM 44.2°F6.8°C 42.9°F6.1°C 95% 7.4 mph NW11.9 kmh NW 12.9 mph20.8 kmh 30.39 in1029.1 mb 0.00 in0.0 mm 0.00 in0.0 mm 0.00 in0.0 mm
11:30 PM 43.7°F6.5°C 42.1°F5.6°C 94% 7.0 mph NW11.3 kmh NW 12.5 mph20.1 kmh 30.39 in1029.1 mb 0.00 in0.0 mm 0.00 in0.0 mm 0.00 in0.0 mm
11:45 PM 43.7°F6.5°C 42.1°F5.6°C 94% 4.5 mph NW7.2 kmh NW 12.2 mph19.6 kmh 30.39 in1029.1 mb 0.00 in0.0 mm 0.00 in0.0 mm 0.00 in0.0 mm